sensor_id;sensor_type;location;lat;lon;timestamp;temperature;humidity
38973;DHT22;25333;50.762;4.470;2022-11-20T07:01:50;5.50;99.90
38973;DHT22;25333;50.762;4.470;2022-11-20T07:08:28;5.60;99.90
38973;DHT22;25333;50.762;4.470;2022-11-20T07:11:36;5.50;99.90
38973;DHT22;25333;50.762;4.470;2022-11-20T07:14:23;5.50;99.90
38973;DHT22;25333;50.762;4.470;2022-11-20T07:16:51;5.50;99.90
38973;DHT22;25333;50.762;4.470;2022-11-20T07:22:25;5.70;99.90
38973;DHT22;25333;50.762;4.470;2022-11-20T07:24:53;5.60;99.90
38973;DHT22;25333;50.762;4.470;2022-11-20T07:27:30;5.70;99.90
38973;DHT22;25333;50.762;4.470;2022-11-20T07:40:25;5.80;99.90
38973;DHT22;25333;50.762;4.470;2022-11-20T07:59:20;5.90;99.90
38973;DHT22;25333;50.762;4.470;2022-11-20T08:01:52;5.90;99.90
38973;DHT22;25333;50.762;4.470;2022-11-20T08:04:17;6.00;99.90
38973;DHT22;25333;50.762;4.470;2022-11-20T08:06:58;6.00;99.90
38973;DHT22;25333;50.762;4.470;2022-11-20T08:09:30;6.00;99.90
38973;DHT22;25333;50.762;4.470;2022-11-20T08:11:56;6.00;99.90
38973;DHT22;25333;50.762;4.470;2022-11-20T08:14:40;6.00;99.90
38973;DHT22;25333;50.762;4.470;2022-11-20T08:17:05;5.90;99.90
38973;DHT22;25333;50.762;4.470;2022-11-20T08:19:31;6.00;99.90
38973;DHT22;25333;50.762;4.470;2022-11-20T08:21:57;6.10;99.90
38973;DHT22;25333;50.762;4.470;2022-11-20T08:24:22;6.10;99.90
38973;DHT22;25333;50.762;4.470;2022-11-20T08:27:08;6.10;99.90
38973;DHT22;25333;50.762;4.470;2022-11-20T08:33:36;6.10;99.90
38973;DHT22;25333;50.762;4.470;2022-11-20T08:36:32;6.10;99.90
38973;DHT22;25333;50.762;4.470;2022-11-20T08:42:34;6.20;99.90
38973;DHT22;25333;50.762;4.470;2022-11-20T08:45:00;6.30;99.90
38973;DHT22;25333;50.762;4.470;2022-11-20T08:47:36;6.30;99.90
38973;DHT22;25333;50.762;4.470;2022-11-20T08:50:04;6.40;99.90
38973;DHT22;25333;50.762;4.470;2022-11-20T08:52:30;6.40;99.90
38973;DHT22;25333;50.762;4.470;2022-11-20T08:54:55;6.40;99.90
38973;DHT22;25333;50.762;4.470;2022-11-20T08:57:21;6.50;99.90
38973;DHT22;25333;50.762;4.470;2022-11-20T08:59:49;6.50;99.90
38973;DHT22;25333;50.762;4.470;2022-11-20T09:02:14;6.40;99.90
38973;DHT22;25333;50.762;4.470;2022-11-20T09:04:40;6.40;99.90
38973;DHT22;25333;50.762;4.470;2022-11-20T09:07:06;6.30;99.90
38973;DHT22;25333;50.762;4.470;2022-11-20T09:09:32;6.30;99.90
38973;DHT22;25333;50.762;4.470;2022-11-20T09:11:58;6.30;99.90
38973;DHT22;25333;50.762;4.470;2022-11-20T09:14:24;6.40;99.90
38973;DHT22;25333;50.762;4.470;2022-11-20T09:17:00;6.40;99.90
38973;DHT22;25333;50.762;4.470;2022-11-20T09:20:17;6.40;99.90
38973;DHT22;25333;50.762;4.470;2022-11-20T09:22:43;6.40;99.90
38973;DHT22;25333;50.762;4.470;2022-11-20T09:25:26;6.50;99.90
38973;DHT22;25333;50.762;4.470;2022-11-20T09:28:16;6.50;99.90
38973;DHT22;25333;50.762;4.470;2022-11-20T09:30:44;6.60;99.90
38973;DHT22;25333;50.762;4.470;2022-11-20T09:33:15;6.70;99.90
38973;DHT22;25333;50.762;4.470;2022-11-20T09:35:40;6.80;99.90
38973;DHT22;25333;50.762;4.470;2022-11-20T09:38:08;6.90;99.90
38973;DHT22;25333;50.762;4.470;2022-11-20T09:44:09;6.90;99.90
38973;DHT22;25333;50.762;4.470;2022-11-20T09:46:55;7.00;99.90
38973;DHT22;25333;50.762;4.470;2022-11-20T10:17:55;7.30;99.90
38973;DHT22;25333;50.762;4.470;2022-11-20T10:20:55;7.40;99.90
38973;DHT22;25333;50.762;4.470;2022-11-20T10:32:35;7.50;99.90
38973;DHT22;25333;50.762;4.470;2022-11-20T10:35:05;7.50;99.90
38973;DHT22;25333;50.762;4.470;2022-11-20T10:37:43;7.50;99.90
38973;DHT22;25333;50.762;4.470;2022-11-20T10:40:38;7.50;99.90
38973;DHT22;25333;50.762;4.470;2022-11-20T10:50:21;7.80;99.90
38973;DHT22;25333;50.762;4.470;2022-11-20T11:24:51;8.10;99.90
38973;DHT22;25333;50.762;4.470;2022-11-20T11:27:48;8.10;99.90
38973;DHT22;25333;50.762;4.470;2022-11-20T11:37:37;8.00;99.90
38973;DHT22;25333;50.762;4.470;2022-11-20T11:40:25;8.00;99.90
38973;DHT22;25333;50.762;4.470;2022-11-20T11:49:40;7.90;99.90
38973;DHT22;25333;50.762;4.470;2022-11-20T11:52:13;7.80;99.90
38973;DHT22;25333;50.762;4.470;2022-11-20T12:06:36;7.80;99.90
38973;DHT22;25333;50.762;4.470;2022-11-20T12:42:19;7.60;99.90
38973;DHT22;25333;50.762;4.470;2022-11-20T12:56:23;7.70;99.90
38973;DHT22;25333;50.762;4.470;2022-11-20T13:07:13;7.70;99.90
38973;DHT22;25333;50.762;4.470;2022-11-20T13:09:46;7.60;99.90
38973;DHT22;25333;50.762;4.470;2022-11-20T13:12:38;7.70;99.90
38973;DHT22;25333;50.762;4.470;2022-11-20T13:17:58;7.60;99.90
38973;DHT22;25333;50.762;4.470;2022-11-20T13:20:25;7.60;99.90
38973;DHT22;25333;50.762;4.470;2022-11-20T13:22:53;7.60;99.90
38973;DHT22;25333;50.762;4.470;2022-11-20T13:25:32;7.50;99.90
38973;DHT22;25333;50.762;4.470;2022-11-20T13:28:03;7.50;99.90
38973;DHT22;25333;50.762;4.470;2022-11-20T13:30:30;7.50;99.90
38973;DHT22;25333;50.762;4.470;2022-11-20T13:33:07;7.50;99.90
38973;DHT22;25333;50.762;4.470;2022-11-20T13:35:41;7.50;99.90
38973;DHT22;25333;50.762;4.470;2022-11-20T13:38:11;7.50;99.90
38973;DHT22;25333;50.762;4.470;2022-11-20T13:40:55;7.50;99.90
38973;DHT22;25333;50.762;4.470;2022-11-20T13:43:41;7.50;99.90
38973;DHT22;25333;50.762;4.470;2022-11-20T13:46:08;7.50;99.90
38973;DHT22;25333;50.762;4.470;2022-11-20T13:48:45;7.50;99.90
38973;DHT22;25333;50.762;4.470;2022-11-20T14:01:29;7.50;99.90
38973;DHT22;25333;50.762;4.470;2022-11-20T14:10:01;7.50;99.90
38973;DHT22;25333;50.762;4.470;2022-11-20T14:12:38;7.50;99.90
38973;DHT22;25333;50.762;4.470;2022-11-20T14:15:30;7.50;99.90
38973;DHT22;25333;50.762;4.470;2022-11-20T14:18:20;7.50;99.90
38973;DHT22;25333;50.762;4.470;2022-11-20T14:21:10;7.50;99.90
38973;DHT22;25333;50.762;4.470;2022-11-20T14:24:05;7.50;99.90
38973;DHT22;25333;50.762;4.470;2022-11-20T14:26:32;7.60;99.90
38973;DHT22;25333;50.762;4.470;2022-11-20T14:29:00;7.60;99.90
38973;DHT22;25333;50.762;4.470;2022-11-20T14:31:27;7.60;99.90
38973;DHT22;25333;50.762;4.470;2022-11-20T14:33:54;7.60;99.90
38973;DHT22;25333;50.762;4.470;2022-11-20T14:36:22;7.60;99.90
38973;DHT22;25333;50.762;4.470;2022-11-20T14:38:53;7.60;99.90
38973;DHT22;25333;50.762;4.470;2022-11-20T14:41:26;7.60;99.90
38973;DHT22;25333;50.762;4.470;2022-11-20T14:46:30;7.60;99.90
38973;DHT22;25333;50.762;4.470;2022-11-20T14:49:01;7.70;99.90
38973;DHT22;25333;50.762;4.470;2022-11-20T14:51:40;7.60;99.90
38973;DHT22;25333;50.762;4.470;2022-11-20T14:54:17;7.70;99.90
38973;DHT22;25333;50.762;4.470;2022-11-20T14:57:00;7.70;99.90
38973;DHT22;25333;50.762;4.470;2022-11-20T14:59:29;7.70;99.90
38973;DHT22;25333;50.762;4.470;2022-11-20T15:02:08;7.70;99.90
38973;DHT22;25333;50.762;4.470;2022-11-20T15:04:48;7.70;99.90
38973;DHT22;25333;50.762;4.470;2022-11-20T15:07:33;7.70;99.90
38973;DHT22;25333;50.762;4.470;2022-11-20T15:10:11;7.80;99.90
38973;DHT22;25333;50.762;4.470;2022-11-20T15:12:55;7.80;99.90
38973;DHT22;25333;50.762;4.470;2022-11-20T15:17:50;7.80;99.90
38973;DHT22;25333;50.762;4.470;2022-11-20T15:20:17;7.90;99.90
38973;DHT22;25333;50.762;4.470;2022-11-20T15:22:45;7.90;99.90
38973;DHT22;25333;50.762;4.470;2022-11-20T15:25:13;7.90;99.90
38973;DHT22;25333;50.762;4.470;2022-11-20T15:27:39;7.90;99.90
38973;DHT22;25333;50.762;4.470;2022-11-20T15:30:17;7.90;99.90
38973;DHT22;25333;50.762;4.470;2022-11-20T15:32:44;7.90;99.90
38973;DHT22;25333;50.762;4.470;2022-11-20T15:35:15;8.00;99.90
38973;DHT22;25333;50.762;4.470;2022-11-20T15:37:42;8.00;99.90
38973;DHT22;25333;50.762;4.470;2022-11-20T15:40:08;8.00;99.90
38973;DHT22;25333;50.762;4.470;2022-11-20T15:42:34;8.00;99.90
38973;DHT22;25333;50.762;4.470;2022-11-20T15:45:11;8.00;99.90
38973;DHT22;25333;50.762;4.470;2022-11-20T15:47:36;8.10;99.90
38973;DHT22;25333;50.762;4.470;2022-11-20T15:50:02;8.10;99.90
38973;DHT22;25333;50.762;4.470;2022-11-20T15:52:28;8.10;99.90
38973;DHT22;25333;50.762;4.470;2022-11-20T15:54:53;8.10;99.90
38973;DHT22;25333;50.762;4.470;2022-11-20T15:57:19;8.10;99.90
38973;DHT22;25333;50.762;4.470;2022-11-20T15:59:45;8.20;99.90
38973;DHT22;25333;50.762;4.470;2022-11-20T16:02:11;8.20;99.90
38973;DHT22;25333;50.762;4.470;2022-11-20T16:04:37;8.20;99.90
38973;DHT22;25333;50.762;4.470;2022-11-20T16:07:03;8.20;99.90
38973;DHT22;25333;50.762;4.470;2022-11-20T16:09:29;8.20;99.90
38973;DHT22;25333;50.762;4.470;2022-11-20T16:11:54;8.20;99.90
38973;DHT22;25333;50.762;4.470;2022-11-20T16:14:20;8.20;99.90
38973;DHT22;25333;50.762;4.470;2022-11-20T16:17:07;8.20;99.90
38973;DHT22;25333;50.762;4.470;2022-11-20T16:19:33;8.20;99.90
38973;DHT22;25333;50.762;4.470;2022-11-20T16:21:59;8.20;99.90
38973;DHT22;25333;50.762;4.470;2022-11-20T16:24:27;8.20;99.90
38973;DHT22;25333;50.762;4.470;2022-11-20T16:26:56;8.20;99.90
38973;DHT22;25333;50.762;4.470;2022-11-20T16:29:21;8.20;99.90
38973;DHT22;25333;50.762;4.470;2022-11-20T16:31:50;8.20;99.90
38973;DHT22;25333;50.762;4.470;2022-11-20T16:34:16;8.20;99.90
38973;DHT22;25333;50.762;4.470;2022-11-20T16:36:43;8.20;99.90
38973;DHT22;25333;50.762;4.470;2022-11-20T16:39:10;8.20;99.90
38973;DHT22;25333;50.762;4.470;2022-11-20T16:41:36;8.20;99.90
38973;DHT22;25333;50.762;4.470;2022-11-20T16:44:07;8.20;99.90
38973;DHT22;25333;50.762;4.470;2022-11-20T16:46:33;8.20;99.90
38973;DHT22;25333;50.762;4.470;2022-11-20T16:49:01;8.20;99.90
38973;DHT22;25333;50.762;4.470;2022-11-20T16:51:28;8.30;99.90
38973;DHT22;25333;50.762;4.470;2022-11-20T16:53:55;8.30;99.90
38973;DHT22;25333;50.762;4.470;2022-11-20T16:56:33;8.20;99.90
38973;DHT22;25333;50.762;4.470;2022-11-20T16:59:00;8.10;99.90
38973;DHT22;25333;50.762;4.470;2022-11-20T17:01:27;8.10;99.90
38973;DHT22;25333;50.762;4.470;2022-11-20T17:04:16;8.10;99.90
38973;DHT22;25333;50.762;4.470;2022-11-20T17:06:42;8.10;99.90
38973;DHT22;25333;50.762;4.470;2022-11-20T17:09:09;8.10;99.90
38973;DHT22;25333;50.762;4.470;2022-11-20T17:11:35;8.10;99.90
38973;DHT22;25333;50.762;4.470;2022-11-20T17:14:02;8.10;99.90
38973;DHT22;25333;50.762;4.470;2022-11-20T17:16:31;8.10;99.90
38973;DHT22;25333;50.762;4.470;2022-11-20T17:18:58;8.10;99.90
38973;DHT22;25333;50.762;4.470;2022-11-20T17:21:25;8.10;99.90
38973;DHT22;25333;50.762;4.470;2022-11-20T17:23:59;8.00;99.90
38973;DHT22;25333;50.762;4.470;2022-11-20T17:26:24;8.00;99.90
38973;DHT22;25333;50.762;4.470;2022-11-20T17:29:01;8.00;99.90
38973;DHT22;25333;50.762;4.470;2022-11-20T17:31:28;7.90;99.90
38973;DHT22;25333;50.762;4.470;2022-11-20T17:33:54;7.90;99.90
38973;DHT22;25333;50.762;4.470;2022-11-20T17:36:20;7.90;99.90
38973;DHT22;25333;50.762;4.470;2022-11-20T17:38:46;7.80;99.90
38973;DHT22;25333;50.762;4.470;2022-11-20T17:41:19;7.90;99.90
38973;DHT22;25333;50.762;4.470;2022-11-20T17:43:55;7.90;99.90
38973;DHT22;25333;50.762;4.470;2022-11-20T17:46:27;7.80;99.90
38973;DHT22;25333;50.762;4.470;2022-11-20T17:48:54;7.80;99.90
38973;DHT22;25333;50.762;4.470;2022-11-20T17:51:23;7.80;99.90
38973;DHT22;25333;50.762;4.470;2022-11-20T17:53:51;7.80;99.90
38973;DHT22;25333;50.762;4.470;2022-11-20T17:56:24;7.80;99.90
38973;DHT22;25333;50.762;4.470;2022-11-20T17:59:13;7.80;99.90
38973;DHT22;25333;50.762;4.470;2022-11-20T18:01:39;7.80;99.90
38973;DHT22;25333;50.762;4.470;2022-11-20T18:04:07;7.80;99.90
38973;DHT22;25333;50.762;4.470;2022-11-20T18:06:34;7.80;99.90
38973;DHT22;25333;50.762;4.470;2022-11-20T18:09:01;7.80;99.90
38973;DHT22;25333;50.762;4.470;2022-11-20T18:11:34;7.80;99.90
38973;DHT22;25333;50.762;4.470;2022-11-20T18:14:36;7.80;99.90
38973;DHT22;25333;50.762;4.470;2022-11-20T18:20:20;7.80;99.90
38973;DHT22;25333;50.762;4.470;2022-11-20T18:22:46;7.90;99.90
38973;DHT22;25333;50.762;4.470;2022-11-20T18:25:11;7.90;99.90
38973;DHT22;25333;50.762;4.470;2022-11-20T18:27:37;7.90;99.90
38973;DHT22;25333;50.762;4.470;2022-11-20T18:30:03;8.00;99.90
38973;DHT22;25333;50.762;4.470;2022-11-20T18:32:29;8.10;99.90
38973;DHT22;25333;50.762;4.470;2022-11-20T18:34:54;8.10;99.90
38973;DHT22;25333;50.762;4.470;2022-11-20T18:37:20;8.10;99.90
38973;DHT22;25333;50.762;4.470;2022-11-20T18:39:46;8.00;99.90
38973;DHT22;25333;50.762;4.470;2022-11-20T18:42:15;8.00;99.90
38973;DHT22;25333;50.762;4.470;2022-11-20T18:45:00;8.00;99.90
38973;DHT22;25333;50.762;4.470;2022-11-20T18:47:28;7.90;99.90
38973;DHT22;25333;50.762;4.470;2022-11-20T18:49:59;7.90;99.90
38973;DHT22;25333;50.762;4.470;2022-11-20T18:52:29;7.90;99.90
38973;DHT22;25333;50.762;4.470;2022-11-20T18:54:55;7.80;99.90
38973;DHT22;25333;50.762;4.470;2022-11-20T18:57:23;7.70;99.90
38973;DHT22;25333;50.762;4.470;2022-11-20T18:59:49;7.70;99.90
38973;DHT22;25333;50.762;4.470;2022-11-20T19:02:18;7.70;99.90
38973;DHT22;25333;50.762;4.470;2022-11-20T19:04:44;7.70;99.90
38973;DHT22;25333;50.762;4.470;2022-11-20T19:07:10;7.70;99.90
38973;DHT22;25333;50.762;4.470;2022-11-20T19:09:40;7.70;99.90
38973;DHT22;25333;50.762;4.470;2022-11-20T19:12:26;7.70;99.90
38973;DHT22;25333;50.762;4.470;2022-11-20T19:14:52;7.70;99.90
38973;DHT22;25333;50.762;4.470;2022-11-20T19:17:18;7.70;99.90
38973;DHT22;25333;50.762;4.470;2022-11-20T19:19:43;7.70;99.90
38973;DHT22;25333;50.762;4.470;2022-11-20T19:22:09;7.80;99.90
38973;DHT22;25333;50.762;4.470;2022-11-20T19:24:55;7.80;99.90
38973;DHT22;25333;50.762;4.470;2022-11-20T19:27:20;7.90;99.90
38973;DHT22;25333;50.762;4.470;2022-11-20T19:29:46;7.80;99.90
38973;DHT22;25333;50.762;4.470;2022-11-20T19:32:12;7.90;99.90
38973;DHT22;25333;50.762;4.470;2022-11-20T19:34:38;7.90;99.90
38973;DHT22;25333;50.762;4.470;2022-11-20T19:37:04;7.90;99.90
38973;DHT22;25333;50.762;4.470;2022-11-20T19:39:29;7.90;99.90
38973;DHT22;25333;50.762;4.470;2022-11-20T19:41:55;7.90;99.90
38973;DHT22;25333;50.762;4.470;2022-11-20T19:44:21;7.80;99.90
38973;DHT22;25333;50.762;4.470;2022-11-20T19:46:46;7.80;99.90
38973;DHT22;25333;50.762;4.470;2022-11-20T19:49:13;7.70;99.90
38973;DHT22;25333;50.762;4.470;2022-11-20T19:51:44;7.60;99.90
38973;DHT22;25333;50.762;4.470;2022-11-20T19:54:10;7.60;99.90
38973;DHT22;25333;50.762;4.470;2022-11-20T19:56:36;7.70;99.90
38973;DHT22;25333;50.762;4.470;2022-11-20T19:59:01;7.60;99.90
38973;DHT22;25333;50.762;4.470;2022-11-20T20:01:31;7.60;99.90
38973;DHT22;25333;50.762;4.470;2022-11-20T20:03:58;7.50;99.90
38973;DHT22;25333;50.762;4.470;2022-11-20T20:06:31;7.50;99.90
38973;DHT22;25333;50.762;4.470;2022-11-20T20:09:02;7.50;99.90
38973;DHT22;25333;50.762;4.470;2022-11-20T20:11:29;7.50;99.90
38973;DHT22;25333;50.762;4.470;2022-11-20T20:13:55;7.50;99.90
38973;DHT22;25333;50.762;4.470;2022-11-20T20:16:24;7.40;99.90
38973;DHT22;25333;50.762;4.470;2022-11-20T20:18:58;7.40;99.90
38973;DHT22;25333;50.762;4.470;2022-11-20T20:21:25;7.40;99.90
38973;DHT22;25333;50.762;4.470;2022-11-20T20:23:53;7.30;99.90
38973;DHT22;25333;50.762;4.470;2022-11-20T20:26:19;7.20;99.90
38973;DHT22;25333;50.762;4.470;2022-11-20T20:28:46;7.20;99.90
38973;DHT22;25333;50.762;4.470;2022-11-20T20:31:14;7.10;99.90
38973;DHT22;25333;50.762;4.470;2022-11-20T20:33:40;7.10;99.90
38973;DHT22;25333;50.762;4.470;2022-11-20T20:36:13;7.10;99.90
38973;DHT22;25333;50.762;4.470;2022-11-20T20:38:39;7.00;99.90
38973;DHT22;25333;50.762;4.470;2022-11-20T20:41:05;7.00;99.90
38973;DHT22;25333;50.762;4.470;2022-11-20T20:43:30;7.00;99.90
38973;DHT22;25333;50.762;4.470;2022-11-20T20:45:56;6.90;99.90
38973;DHT22;25333;50.762;4.470;2022-11-20T20:48:23;6.90;99.90
38973;DHT22;25333;50.762;4.470;2022-11-20T20:50:56;6.80;99.90
38973;DHT22;25333;50.762;4.470;2022-11-20T20:53:33;6.80;99.90
38973;DHT22;25333;50.762;4.470;2022-11-20T20:56:00;6.80;99.90
38973;DHT22;25333;50.762;4.470;2022-11-20T20:58:28;6.80;99.90
38973;DHT22;25333;50.762;4.470;2022-11-20T21:00:54;6.80;99.90
38973;DHT22;25333;50.762;4.470;2022-11-20T21:03:25;6.80;99.90
38973;DHT22;25333;50.762;4.470;2022-11-20T21:05:55;6.80;99.90
38973;DHT22;25333;50.762;4.470;2022-11-20T21:08:21;6.80;99.90
38973;DHT22;25333;50.762;4.470;2022-11-20T21:10:50;6.80;99.90
38973;DHT22;25333;50.762;4.470;2022-11-20T21:13:16;6.80;99.90
38973;DHT22;25333;50.762;4.470;2022-11-20T21:15:42;6.80;99.90
38973;DHT22;25333;50.762;4.470;2022-11-20T21:18:10;6.80;99.90
38973;DHT22;25333;50.762;4.470;2022-11-20T21:20:38;6.80;99.90
38973;DHT22;25333;50.762;4.470;2022-11-20T21:23:22;6.80;99.90
38973;DHT22;25333;50.762;4.470;2022-11-20T21:25:48;6.80;99.90
38973;DHT22;25333;50.762;4.470;2022-11-20T21:28:13;6.80;99.90
38973;DHT22;25333;50.762;4.470;2022-11-20T21:30:39;6.80;99.90
38973;DHT22;25333;50.762;4.470;2022-11-20T21:33:04;6.80;99.90
38973;DHT22;25333;50.762;4.470;2022-11-20T21:35:33;6.70;99.90
38973;DHT22;25333;50.762;4.470;2022-11-20T21:37:59;6.70;99.90
38973;DHT22;25333;50.762;4.470;2022-11-20T21:40:25;6.70;99.90
38973;DHT22;25333;50.762;4.470;2022-11-20T21:42:52;6.80;99.90
38973;DHT22;25333;50.762;4.470;2022-11-20T21:45:18;6.80;99.90
38973;DHT22;25333;50.762;4.470;2022-11-20T21:47:43;6.70;99.90
38973;DHT22;25333;50.762;4.470;2022-11-20T21:50:09;6.70;99.90
38973;DHT22;25333;50.762;4.470;2022-11-20T21:52:35;6.70;99.90
38973;DHT22;25333;50.762;4.470;2022-11-20T21:55:01;6.70;99.90
38973;DHT22;25333;50.762;4.470;2022-11-20T21:57:26;6.70;99.90
38973;DHT22;25333;50.762;4.470;2022-11-20T21:59:52;6.70;99.90
38973;DHT22;25333;50.762;4.470;2022-11-20T22:02:17;6.70;99.90
38973;DHT22;25333;50.762;4.470;2022-11-20T22:04:43;6.70;99.90
38973;DHT22;25333;50.762;4.470;2022-11-20T22:07:09;6.70;99.90
38973;DHT22;25333;50.762;4.470;2022-11-20T22:09:34;6.80;99.90
38973;DHT22;25333;50.762;4.470;2022-11-20T22:12:00;6.70;99.90
38973;DHT22;25333;50.762;4.470;2022-11-20T22:14:25;6.70;99.90
38973;DHT22;25333;50.762;4.470;2022-11-20T22:16:52;6.70;99.90
38973;DHT22;25333;50.762;4.470;2022-11-20T22:19:19;6.70;99.90
38973;DHT22;25333;50.762;4.470;2022-11-20T22:21:45;6.70;99.90
38973;DHT22;25333;50.762;4.470;2022-11-20T22:24:13;6.70;99.90
38973;DHT22;25333;50.762;4.470;2022-11-20T22:26:39;6.70;99.90
38973;DHT22;25333;50.762;4.470;2022-11-20T22:29:05;6.70;99.90
38973;DHT22;25333;50.762;4.470;2022-11-20T22:31:36;6.70;99.90
38973;DHT22;25333;50.762;4.470;2022-11-20T22:34:02;6.70;99.90
38973;DHT22;25333;50.762;4.470;2022-11-20T22:36:29;6.70;99.90
38973;DHT22;25333;50.762;4.470;2022-11-20T22:38:55;6.70;99.90
38973;DHT22;25333;50.762;4.470;2022-11-20T22:41:26;6.70;99.90
38973;DHT22;25333;50.762;4.470;2022-11-20T22:44:00;6.70;99.90
38973;DHT22;25333;50.762;4.470;2022-11-20T22:46:28;6.70;99.90
38973;DHT22;25333;50.762;4.470;2022-11-20T22:48:57;6.70;99.90
38973;DHT22;25333;50.762;4.470;2022-11-20T22:51:25;6.80;99.90
38973;DHT22;25333;50.762;4.470;2022-11-20T22:53:51;6.80;99.90
38973;DHT22;25333;50.762;4.470;2022-11-20T22:56:17;6.90;99.90
38973;DHT22;25333;50.762;4.470;2022-11-20T22:58:52;6.90;99.90
38973;DHT22;25333;50.762;4.470;2022-11-20T23:01:18;6.80;99.90
38973;DHT22;25333;50.762;4.470;2022-11-20T23:03:46;6.80;99.90
38973;DHT22;25333;50.762;4.470;2022-11-20T23:06:13;6.80;99.90
38973;DHT22;25333;50.762;4.470;2022-11-20T23:08:57;6.70;99.90
38973;DHT22;25333;50.762;4.470;2022-11-20T23:11:27;6.70;99.90
38973;DHT22;25333;50.762;4.470;2022-11-20T23:13:54;6.60;99.90
38973;DHT22;25333;50.762;4.470;2022-11-20T23:16:22;6.60;99.90
38973;DHT22;25333;50.762;4.470;2022-11-20T23:18:56;6.60;99.90
38973;DHT22;25333;50.762;4.470;2022-11-20T23:21:22;6.60;99.90
38973;DHT22;25333;50.762;4.470;2022-11-20T23:23:50;6.60;99.90
38973;DHT22;25333;50.762;4.470;2022-11-20T23:26:17;6.50;99.90
38973;DHT22;25333;50.762;4.470;2022-11-20T23:28:43;6.50;99.90
38973;DHT22;25333;50.762;4.470;2022-11-20T23:31:13;6.50;99.90
38973;DHT22;25333;50.762;4.470;2022-11-20T23:33:42;6.50;99.90
38973;DHT22;25333;50.762;4.470;2022-11-20T23:36:08;6.50;99.90
38973;DHT22;25333;50.762;4.470;2022-11-20T23:38:35;6.40;99.90
38973;DHT22;25333;50.762;4.470;2022-11-20T23:41:00;6.50;99.90
38973;DHT22;25333;50.762;4.470;2022-11-20T23:43:26;6.50;99.90
38973;DHT22;25333;50.762;4.470;2022-11-20T23:45:55;6.60;99.90
38973;DHT22;25333;50.762;4.470;2022-11-20T23:48:23;6.60;99.90
38973;DHT22;25333;50.762;4.470;2022-11-20T23:50:49;6.70;99.90
38973;DHT22;25333;50.762;4.470;2022-11-20T23:53:16;6.70;99.90
38973;DHT22;25333;50.762;4.470;2022-11-20T23:55:53;6.60;99.90
38973;DHT22;25333;50.762;4.470;2022-11-20T23:58:19;6.60;99.90
